createdAt,value
2017-02-17T00:00:28.296Z,99.99
2017-02-17T00:01:27.879Z,99.99
2017-02-17T00:02:28.255Z,99.99
2017-02-17T00:03:28.240Z,99.99
2017-02-17T00:04:28.219Z,99.99
2017-02-17T00:05:28.200Z,99.99
2017-02-17T00:06:28.208Z,99.99
2017-02-17T00:07:28.171Z,99.99
2017-02-17T00:08:28.146Z,99.99
2017-02-17T00:09:28.140Z,99.99
2017-02-17T00:10:28.118Z,99.99
2017-02-17T00:11:28.114Z,99.99
2017-02-17T00:12:28.078Z,99.99
2017-02-17T00:13:28.066Z,99.99
2017-02-17T00:14:28.050Z,99.99
2017-02-17T00:15:28.017Z,99.99
2017-02-17T00:16:28.006Z,99.99
2017-02-17T00:17:28.002Z,99.99
2017-02-17T00:18:27.964Z,99.99
2017-02-17T00:19:27.953Z,99.99
2017-02-17T00:20:27.944Z,99.99
2017-02-17T00:21:27.914Z,99.99
2017-02-17T00:22:27.893Z,99.99
2017-02-17T00:23:27.878Z,99.99
2017-02-17T00:24:27.856Z,99.99
2017-02-17T00:25:27.840Z,99.99
2017-02-17T00:26:27.817Z,99.99
2017-02-17T00:27:27.801Z,99.99
2017-02-17T00:28:27.779Z,99.99
2017-02-17T00:29:27.768Z,99.99
2017-02-17T00:30:27.746Z,99.99
2017-02-17T00:31:27.932Z,99.99
2017-02-17T00:32:27.721Z,99.99
2017-02-17T00:33:27.700Z,99.99
2017-02-17T00:34:27.284Z,99.99
2017-02-17T00:35:27.656Z,99.99
2017-02-17T00:36:27.248Z,99.99
2017-02-17T00:37:27.621Z,99.99
2017-02-17T00:38:27.605Z,99.99
2017-02-17T00:39:27.582Z,99.99
2017-02-17T00:40:27.566Z,99.99
2017-02-17T00:41:27.546Z,99.99
2017-02-17T00:42:27.533Z,99.99
2017-02-17T00:43:27.507Z,99.99
2017-02-17T00:44:27.506Z,99.99
2017-02-17T00:45:27.473Z,99.99
2017-02-17T00:46:27.455Z,99.99
2017-02-17T00:47:27.433Z,99.99
2017-02-17T00:48:27.416Z,99.99
2017-02-17T00:49:27.398Z,99.99
2017-02-17T00:50:27.379Z,99.99
2017-02-17T00:51:26.964Z,99.99
2017-02-17T00:52:27.341Z,99.99
2017-02-17T00:53:27.320Z,99.99
2017-02-17T00:54:27.305Z,99.99
2017-02-17T01:06:48.077Z,99.99
2017-02-17T01:07:48.474Z,99.99
2017-02-17T01:08:48.041Z,99.99
2017-02-17T01:09:48.424Z,99.99
2017-02-17T01:10:48.398Z,99.99
2017-02-17T01:11:48.383Z,99.99
2017-02-17T01:12:48.362Z,99.99
2017-02-17T01:13:48.349Z,99.99
2017-02-17T01:14:48.329Z,99.99
2017-02-17T01:15:48.315Z,99.99
2017-02-17T01:16:48.293Z,99.99
2017-02-17T01:17:48.270Z,99.99
2017-02-17T01:18:48.251Z,99.99
2017-02-17T01:19:48.235Z,99.99
2017-02-17T01:20:48.214Z,99.99
2017-02-17T01:21:48.194Z,99.99
2017-02-17T01:22:48.191Z,99.99
2017-02-17T01:23:48.157Z,99.99
2017-02-17T01:24:48.150Z,99.99
2017-02-17T01:25:48.122Z,99.99
2017-02-17T01:26:48.103Z,99.99
2017-02-17T01:27:48.094Z,99.99
2017-02-17T01:28:48.068Z,99.99
2017-02-17T01:29:48.047Z,99.99
2017-02-17T01:30:48.039Z,99.99
2017-02-17T01:31:48.007Z,99.99
2017-02-17T01:32:47.609Z,99.99
2017-02-17T01:33:47.981Z,99.99
2017-02-17T01:34:47.956Z,99.99
2017-02-17T01:35:47.935Z,99.99
2017-02-17T01:36:47.917Z,99.99
2017-02-17T01:37:47.895Z,99.99
2017-02-17T01:38:47.883Z,99.99
2017-02-17T01:39:47.465Z,99.99
2017-02-17T01:40:47.845Z,99.99
2017-02-17T01:41:47.835Z,99.99
2017-02-17T01:42:47.804Z,99.99
2017-02-17T01:43:47.791Z,99.99
2017-02-17T01:44:47.772Z,99.99
2017-02-17T01:45:47.355Z,99.99
2017-02-17T01:46:47.730Z,99.99
2017-02-17T01:47:47.727Z,99.99
2017-02-17T01:48:47.693Z,99.99
2017-02-17T01:49:47.284Z,99.99
2017-02-17T01:50:47.668Z,99.99
2017-02-17T01:51:47.654Z,99.99
2017-02-17T01:52:47.622Z,99.99
2017-02-17T01:53:47.603Z,99.99
2017-02-17T01:54:47.587Z,99.99
2017-02-17T01:55:47.173Z,99.99
2017-02-17T01:56:47.547Z,99.99
2017-02-17T01:57:47.545Z,99.99
2017-02-17T01:58:47.510Z,99.99
2017-02-17T01:59:47.499Z,99.99
2017-02-17T02:00:47.477Z,99.99
2017-02-17T02:01:47.456Z,99.99
2017-02-17T02:02:47.441Z,99.99
2017-02-17T02:03:47.425Z,99.99
2017-02-17T02:04:47.417Z,99.99
2017-02-17T02:05:47.382Z,99.99
2017-02-17T02:06:47.376Z,99.99
2017-02-17T02:07:47.348Z,99.99
2017-02-17T02:08:47.330Z,99.99
2017-02-17T02:09:47.322Z,99.99
2017-02-17T02:10:47.294Z,99.99
2017-02-17T02:11:47.350Z,99.99
2017-02-17T02:12:47.266Z,99.99
2017-02-17T02:13:47.249Z,99.99
2017-02-17T02:14:47.219Z,99.99
2017-02-17T02:15:47.199Z,99.99
2017-02-17T02:16:47.184Z,99.99
2017-02-17T02:17:47.172Z,99.99
2017-02-17T02:18:47.163Z,99.99
2017-02-17T02:19:47.130Z,99.99
2017-02-17T02:20:47.112Z,99.99
2017-02-17T02:21:47.092Z,99.99
2017-02-17T02:22:46.685Z,99.99
2017-02-17T02:23:47.061Z,99.99
2017-02-17T02:24:47.047Z,99.99
2017-02-17T02:25:47.018Z,99.99
2017-02-17T02:26:47.002Z,99.99
2017-02-17T02:27:46.994Z,99.99
2017-02-17T02:28:46.967Z,99.99
2017-02-17T02:29:46.946Z,99.99
2017-02-17T02:30:46.938Z,99.99
2017-02-17T02:31:46.910Z,99.99
2017-02-17T02:32:46.901Z,99.99
2017-02-17T02:33:46.891Z,99.99
2017-02-17T02:34:46.859Z,99.99
2017-02-17T02:35:46.838Z,99.99
2017-02-17T02:36:46.426Z,99.99
2017-02-17T02:37:46.800Z,99.99
2017-02-17T02:38:46.810Z,99.99
2017-02-17T02:39:46.769Z,99.99
2017-02-17T02:40:46.748Z,99.99
2017-02-17T02:41:46.739Z,99.99
2017-02-17T02:42:46.713Z,99.99
2017-02-17T02:43:46.696Z,99.99
2017-02-17T02:44:46.285Z,99.99
2017-02-17T02:45:46.661Z,99.99
2017-02-17T02:46:46.651Z,99.99
2017-02-17T02:47:46.620Z,99.99
2017-02-17T02:48:46.612Z,99.99
2017-02-17T02:49:46.586Z,99.99
2017-02-17T02:50:46.566Z,99.99
2017-02-17T02:51:46.554Z,99.99
2017-02-17T02:52:46.134Z,99.99
2017-02-17T02:53:46.522Z,99.99
2017-02-17T02:54:46.508Z,99.99
2017-02-17T02:55:46.475Z,99.99
2017-02-17T02:56:46.537Z,99.99
2017-02-17T02:57:46.440Z,99.99
2017-02-17T02:58:46.421Z,99.99
2017-02-17T02:59:46.401Z,99.99
2017-02-17T03:00:46.386Z,99.99
2017-02-17T03:01:46.372Z,99.99
2017-02-17T03:02:46.364Z,99.99
2017-02-17T03:03:46.332Z,99.99
2017-02-17T03:04:46.315Z,99.99
2017-02-17T03:05:46.294Z,99.99
2017-02-17T03:06:46.286Z,99.99
2017-02-17T03:07:46.258Z,99.99
2017-02-17T03:08:45.846Z,99.99
2017-02-17T03:09:46.225Z,99.99
2017-02-17T03:10:46.207Z,99.99
2017-02-17T03:11:46.192Z,99.99
2017-02-17T03:12:45.780Z,99.99
2017-02-17T03:13:46.153Z,99.99
2017-02-17T03:14:46.132Z,99.99
2017-02-17T03:15:46.110Z,99.99
2017-02-17T03:16:45.698Z,99.99
2017-02-17T03:17:46.079Z,99.99
2017-02-17T03:18:45.663Z,99.99
2017-02-17T03:19:46.041Z,99.99
2017-02-17T03:20:46.018Z,99.99
2017-02-17T03:21:46.002Z,99.99
2017-02-17T03:22:45.990Z,99.99
2017-02-17T03:23:45.971Z,99.99
2017-02-17T03:24:45.948Z,99.99
2017-02-17T03:25:45.932Z,99.99
2017-02-17T03:26:45.911Z,99.99
2017-02-17T03:27:45.902Z,99.99
2017-02-17T03:28:45.883Z,99.99
2017-02-17T03:29:45.462Z,99.99
2017-02-17T03:30:45.840Z,99.99
2017-02-17T03:31:45.834Z,99.99
2017-02-17T03:32:45.810Z,99.99
2017-02-17T03:33:45.793Z,99.99
2017-02-17T03:34:45.775Z,99.99
2017-02-17T03:35:45.758Z,99.99
2017-02-17T03:36:45.731Z,99.99
2017-02-17T03:37:45.716Z,99.99
2017-02-17T03:38:45.700Z,99.99
2017-02-17T03:39:45.673Z,99.99
2017-02-17T03:40:45.660Z,99.99
2017-02-17T03:41:45.639Z,99.99
2017-02-17T03:42:45.623Z,99.99
2017-02-17T03:43:45.601Z,99.99
2017-02-17T03:44:45.593Z,99.99
2017-02-17T03:45:45.565Z,99.99
2017-02-17T03:46:45.543Z,99.99
2017-02-17T03:47:45.132Z,99.99
2017-02-17T03:48:45.124Z,99.99
2017-02-17T03:49:45.540Z,99.99
2017-02-17T03:50:45.491Z,99.99
2017-02-17T03:51:45.461Z,99.99
2017-02-17T03:52:45.441Z,99.99
2017-02-17T03:53:45.047Z,99.99
2017-02-17T03:54:45.406Z,99.99
2017-02-17T03:55:45.386Z,99.99
2017-02-17T03:56:45.368Z,99.99
2017-02-17T03:57:45.346Z,99.99
2017-02-17T03:58:45.336Z,99.99
2017-02-17T03:59:45.306Z,99.99
2017-02-17T04:00:45.288Z,99.99
2017-02-17T04:01:45.274Z,99.99
2017-02-17T04:02:45.251Z,99.99
2017-02-17T04:03:45.238Z,99.99
2017-02-17T04:04:45.222Z,99.99
2017-02-17T04:05:45.201Z,99.99
2017-02-17T04:06:45.203Z,99.99
2017-02-17T04:07:45.168Z,99.99
2017-02-17T04:08:44.764Z,99.99
2017-02-17T04:09:45.122Z,99.99
2017-02-17T04:10:45.110Z,99.99
2017-02-17T04:11:45.086Z,99.99
2017-02-17T04:12:45.077Z,99.99
2017-02-17T04:13:45.062Z,99.99
2017-02-17T04:14:45.035Z,99.99
2017-02-17T04:15:45.015Z,99.99
2017-02-17T04:16:45.003Z,99.99
2017-02-17T04:17:44.585Z,99.99
2017-02-17T04:18:44.969Z,99.99
2017-02-17T04:19:44.544Z,99.99
2017-02-17T04:20:44.528Z,99.99
2017-02-17T04:21:44.912Z,99.99
2017-02-17T04:22:44.886Z,99.99
2017-02-17T04:23:44.885Z,99.99
2017-02-17T04:24:44.454Z,99.99
2017-02-17T04:25:44.457Z,99.99
2017-02-17T04:26:44.819Z,99.99
2017-02-17T04:27:44.802Z,99.99
2017-02-17T04:28:44.778Z,99.99
2017-02-17T04:29:44.759Z,99.99
2017-02-17T04:30:44.742Z,99.99
2017-02-17T04:31:44.938Z,99.99
2017-02-17T04:32:44.706Z,99.99
2017-02-17T04:33:44.699Z,99.99
2017-02-17T04:34:44.669Z,99.99
2017-02-17T04:35:44.649Z,99.99
2017-02-17T04:36:44.633Z,99.99
2017-02-17T04:37:44.629Z,99.99
2017-02-17T04:38:44.602Z,99.99
2017-02-17T04:39:44.595Z,99.99
2017-02-17T04:40:44.586Z,99.99
2017-02-17T04:41:44.590Z,99.99
2017-02-17T04:42:44.523Z,99.99
2017-02-17T04:43:44.510Z,99.99
2017-02-17T04:44:44.501Z,99.99
2017-02-17T04:45:44.476Z,99.99
2017-02-17T04:46:44.455Z,99.99
2017-02-17T04:47:44.451Z,99.99
2017-02-17T04:48:44.418Z,99.99
2017-02-17T04:49:44.399Z,99.99
2017-02-17T04:50:44.382Z,99.99
2017-02-17T04:51:44.367Z,99.99
2017-02-17T04:52:44.341Z,99.99
2017-02-17T04:53:44.333Z,99.99
2017-02-17T04:54:44.305Z,99.99
2017-02-17T04:55:43.906Z,99.99
2017-02-17T04:56:44.275Z,99.99
2017-02-17T04:57:44.249Z,99.99
2017-02-17T04:58:44.241Z,99.99
2017-02-17T04:59:44.215Z,99.99
2017-02-17T05:00:44.195Z,99.99
2017-02-17T05:01:44.180Z,99.99
2017-02-17T05:02:44.160Z,99.99
2017-02-17T05:03:44.142Z,99.99
2017-02-17T05:04:44.130Z,99.99
2017-02-17T05:05:44.107Z,99.99
2017-02-17T05:06:44.084Z,99.99
2017-02-17T05:07:43.676Z,99.99
2017-02-17T05:08:44.063Z,99.99
2017-02-17T05:09:44.035Z,99.99
2017-02-17T05:10:44.013Z,99.99
2017-02-17T05:11:44.005Z,99.99
2017-02-17T05:12:43.989Z,99.99
2017-02-17T05:13:43.979Z,99.99
2017-02-17T05:14:43.947Z,99.99
2017-02-17T05:15:43.928Z,99.99
2017-02-17T05:16:43.916Z,99.99
2017-02-17T05:17:43.889Z,99.99
2017-02-17T05:18:43.889Z,99.99
2017-02-17T05:19:43.854Z,99.99
2017-02-17T05:20:43.828Z,99.99
2017-02-17T05:21:43.819Z,99.99
2017-02-17T05:22:43.806Z,99.99
2017-02-17T05:23:43.781Z,99.99
2017-02-17T05:24:43.764Z,99.99
2017-02-17T05:25:43.754Z,99.99
2017-02-17T05:26:43.726Z,99.99
2017-02-17T05:27:43.720Z,99.99
2017-02-17T05:28:43.688Z,99.99
2017-02-17T05:29:43.679Z,99.99
2017-02-17T05:30:43.664Z,99.99
2017-02-17T05:31:43.651Z,99.99
2017-02-17T05:32:43.616Z,99.99
2017-02-17T05:33:43.604Z,99.99
2017-02-17T05:34:43.592Z,99.99
2017-02-17T05:35:43.567Z,99.99
2017-02-17T05:36:43.550Z,99.99
2017-02-17T05:37:43.165Z,99.99
2017-02-17T05:38:43.510Z,99.99
2017-02-17T05:39:43.099Z,99.99
2017-02-17T05:40:43.476Z,99.99
2017-02-17T05:41:43.453Z,99.99
2017-02-17T05:42:43.440Z,99.99
2017-02-17T05:43:43.420Z,99.99
2017-02-17T05:44:43.410Z,99.99
2017-02-17T05:45:43.382Z,99.99
2017-02-17T05:46:43.383Z,99.99
2017-02-17T05:47:43.345Z,99.99
2017-02-17T05:48:43.328Z,99.99
2017-02-17T05:49:43.306Z,99.99
2017-02-17T05:50:43.290Z,99.99
2017-02-17T05:51:43.275Z,99.99
2017-02-17T05:52:43.269Z,99.99
2017-02-17T05:53:43.243Z,99.99
2017-02-17T05:54:43.218Z,99.99
2017-02-17T05:55:43.212Z,99.99
2017-02-17T05:56:43.194Z,99.99
2017-02-17T05:57:43.175Z,99.99
2017-02-17T05:58:43.146Z,99.99
2017-02-17T05:59:43.133Z,99.99
2017-02-17T06:00:43.109Z,99.99
2017-02-17T06:01:43.101Z,99.99
2017-02-17T06:02:43.079Z,99.99
2017-02-17T06:03:43.071Z,99.99
2017-02-17T06:04:43.040Z,99.99
2017-02-17T06:05:43.032Z,99.99
2017-02-17T06:06:43.003Z,99.99
2017-02-17T06:07:42.983Z,99.99
2017-02-17T06:08:42.971Z,99.99
2017-02-17T06:09:42.559Z,99.99
2017-02-17T06:10:42.927Z,99.99
2017-02-17T06:11:42.909Z,99.99
2017-02-17T06:12:42.891Z,99.99
2017-02-17T06:13:42.889Z,99.99
2017-02-17T06:14:42.909Z,99.99
2017-02-17T06:15:42.834Z,99.99
2017-02-17T06:16:42.823Z,99.99
2017-02-17T06:17:42.818Z,99.99
2017-02-17T06:18:42.781Z,99.99
2017-02-17T06:19:42.770Z,99.99
2017-02-17T06:20:42.747Z,99.99
2017-02-17T06:21:42.727Z,99.99
2017-02-17T06:22:42.707Z,99.99
2017-02-17T06:23:42.690Z,99.99
2017-02-17T06:24:42.678Z,99.99
2017-02-17T06:25:42.664Z,99.99
2017-02-17T06:26:42.636Z,99.99
2017-02-17T06:27:42.620Z,99.99
2017-02-17T06:28:42.602Z,99.99
2017-02-17T06:29:42.581Z,99.99
2017-02-17T06:30:42.567Z,99.99
2017-02-17T06:31:42.753Z,99.99
2017-02-17T06:32:42.542Z,99.99
2017-02-17T06:33:42.509Z,99.99
2017-02-17T06:34:42.501Z,99.99
2017-02-17T06:35:42.478Z,99.99
2017-02-17T06:36:42.459Z,99.99
2017-02-17T06:37:42.433Z,99.99
2017-02-17T06:38:42.075Z,99.99
2017-02-17T06:39:42.396Z,99.99
2017-02-17T06:40:42.391Z,99.99
2017-02-17T06:41:42.376Z,99.99
2017-02-17T06:42:42.347Z,99.64
2017-02-17T06:43:42.337Z,99.99
2017-02-17T06:44:42.312Z,99.83
2017-02-17T06:45:42.296Z,99.64
2017-02-17T06:46:42.269Z,99.99
2017-02-17T06:47:42.262Z,99.99
2017-02-17T06:48:42.234Z,99.99
2017-02-17T06:49:42.226Z,99.99
2017-02-17T06:50:42.204Z,99.99
2017-02-17T06:51:42.193Z,99.99
2017-02-17T06:52:42.219Z,99.99
2017-02-17T06:53:42.138Z,99.99
2017-02-17T06:54:42.143Z,99.99
2017-02-17T06:55:42.128Z,99.83
2017-02-17T06:56:42.098Z,99.73
2017-02-17T06:57:42.076Z,99.83
2017-02-17T06:58:42.050Z,99.92
2017-02-17T06:59:42.032Z,99.99
2017-02-17T07:00:42.014Z,99.99
2017-02-17T07:01:42.008Z,99.99
2017-02-17T07:02:42.017Z,99.26
2017-02-17T07:03:41.962Z,99.92
2017-02-17T07:04:41.947Z,99.26
2017-02-17T07:05:41.922Z,98.97
2017-02-17T07:06:41.909Z,99.92
2017-02-17T07:07:41.887Z,99.54
2017-02-17T07:08:41.874Z,99.16
2017-02-17T07:09:41.849Z,99.35
2017-02-17T07:10:41.857Z,99.35
2017-02-17T07:11:41.814Z,99.64
2017-02-17T07:12:41.797Z,99.16
2017-02-17T07:13:41.381Z,99.49
2017-02-17T07:14:41.362Z,99.54
2017-02-17T07:15:41.738Z,99.54
2017-02-17T07:16:41.721Z,99.54
2017-02-17T07:17:41.702Z,99.44
2017-02-17T07:18:41.687Z,99.99
2017-02-17T07:19:41.666Z,99.99
2017-02-17T07:20:41.649Z,99.54
2017-02-17T07:21:41.629Z,99.54
2017-02-17T07:22:41.610Z,99.99
2017-02-17T07:23:41.593Z,99.99
2017-02-17T07:24:41.653Z,99.99
2017-02-17T07:25:41.173Z,99.99
2017-02-17T07:26:41.555Z,99.99
2017-02-17T07:27:41.531Z,99.99
2017-02-17T07:28:41.508Z,99.99
2017-02-17T07:29:41.087Z,99.99
2017-02-17T07:30:41.475Z,99.99
2017-02-17T07:31:41.446Z,99.99
2017-02-17T07:32:41.035Z,99.99
2017-02-17T07:33:41.416Z,99.99
2017-02-17T07:34:41.001Z,99.99
2017-02-17T07:35:41.372Z,99.99
2017-02-17T07:36:41.376Z,99.99
2017-02-17T07:37:41.937Z,99.99
2017-02-17T07:38:41.332Z,99.99
2017-02-17T07:39:41.357Z,99.99
2017-02-17T07:40:41.279Z,99.99
2017-02-17T07:41:41.266Z,99.73
2017-02-17T07:42:41.296Z,99.99
2017-02-17T07:43:41.232Z,99.92
2017-02-17T07:44:41.209Z,99.35
2017-02-17T07:45:41.193Z,99.99
2017-02-17T07:46:41.169Z,99.99
2017-02-17T07:47:41.151Z,99.99
2017-02-17T07:48:41.140Z,99.64
2017-02-17T07:49:41.121Z,99.92
2017-02-17T07:50:41.113Z,99.54
2017-02-17T07:51:41.083Z,99.73
2017-02-17T07:52:41.067Z,99.54
2017-02-17T07:53:41.062Z,99.99
2017-02-17T07:54:41.037Z,99.99
2017-02-17T07:55:41.015Z,99.44
2017-02-17T07:56:41.000Z,99.83
2017-02-17T07:57:40.981Z,99.92
2017-02-17T07:58:40.964Z,99.44
2017-02-17T07:59:40.940Z,99.35
2017-02-17T08:00:40.978Z,99.64
2017-02-17T08:01:40.916Z,99.44
2017-02-17T08:02:40.885Z,99.73
2017-02-17T08:03:40.872Z,99.35
2017-02-17T08:04:40.845Z,99.54
2017-02-17T08:05:40.823Z,99.73
2017-02-17T08:06:40.821Z,99.83
2017-02-17T08:07:40.408Z,99.92
2017-02-17T08:08:40.383Z,99.92
2017-02-17T08:09:40.359Z,99.99
2017-02-17T08:10:40.745Z,99.83
2017-02-17T08:11:40.322Z,99.73
2017-02-17T08:12:40.708Z,99.54
2017-02-17T08:13:40.712Z,99.92
2017-02-17T08:14:40.664Z,99.44
2017-02-17T08:15:40.645Z,99.99
2017-02-17T08:16:40.247Z,99.99
2017-02-17T08:17:40.216Z,99.99
2017-02-17T08:18:40.594Z,99.99
2017-02-17T08:19:40.572Z,99.99
2017-02-17T08:20:40.557Z,99.99
2017-02-17T08:21:40.535Z,99.99
2017-02-17T08:22:40.520Z,99.92
2017-02-17T08:23:40.504Z,99.99
2017-02-17T08:24:40.489Z,99.99
2017-02-17T08:25:40.481Z,99.99
2017-02-17T08:26:40.457Z,99.83
2017-02-17T08:27:40.432Z,99.73
2017-02-17T08:28:40.419Z,99.73
2017-02-17T08:29:40.395Z,99.99
2017-02-17T08:30:40.373Z,99.73
2017-02-17T08:31:40.604Z,99.83
2017-02-17T08:32:40.347Z,99.73
2017-02-17T08:33:40.323Z,99.92
2017-02-17T08:34:40.347Z,99.92
2017-02-17T08:35:40.334Z,99.35
2017-02-17T08:36:40.288Z,99.54
2017-02-17T08:37:40.257Z,99.44
2017-02-17T08:38:40.256Z,99.54
2017-02-17T08:39:40.263Z,99.44
2017-02-17T08:40:40.196Z,99.44
2017-02-17T08:41:40.200Z,98.97
2017-02-17T08:42:40.160Z,99.54
2017-02-17T08:43:40.143Z,99.16
2017-02-17T08:44:40.142Z,99.73
2017-02-17T08:45:40.113Z,98.88
2017-02-17T08:46:40.084Z,99.35
2017-02-17T08:47:39.672Z,98.97
2017-02-17T08:48:40.063Z,98.97
2017-02-17T08:49:40.034Z,99.07
2017-02-17T08:50:40.018Z,98.97
2017-02-17T08:51:40.002Z,99.35
2017-02-17T08:52:39.990Z,98.5
2017-02-17T08:53:39.966Z,98.69
2017-02-17T08:54:39.549Z,98.5
2017-02-17T08:55:39.924Z,98.79
2017-02-17T08:56:39.912Z,98.59
2017-02-17T08:57:39.890Z,98.12
2017-02-17T08:58:39.874Z,97.64
2017-02-17T08:59:39.873Z,97.83
2017-02-17T09:00:39.836Z,98.31
2017-02-17T09:01:39.823Z,97.64
2017-02-17T09:02:39.413Z,97.83
2017-02-17T09:03:39.392Z,97.55
2017-02-17T09:04:39.767Z,97.83
2017-02-17T09:05:39.761Z,97.83
2017-02-17T09:06:39.738Z,97.83
2017-02-17T09:07:39.719Z,97.83
2017-02-17T09:08:39.299Z,97.36
2017-02-17T09:09:39.683Z,97.36
2017-02-17T09:10:39.660Z,97.17
2017-02-17T09:11:39.645Z,97.45
2017-02-17T09:12:39.634Z,96.79
2017-02-17T09:13:39.609Z,97.17
2017-02-17T09:14:39.589Z,97.17
2017-02-17T09:15:39.572Z,97.17
2017-02-17T09:16:39.554Z,97.27
2017-02-17T09:17:39.544Z,97.36
2017-02-17T09:18:39.522Z,97.27
2017-02-17T09:19:39.511Z,96.88
2017-02-17T09:20:39.490Z,97.07
2017-02-17T09:21:40.467Z,97.22
2017-02-17T09:22:39.458Z,97.22
2017-02-17T09:23:39.467Z,97.31
2017-02-17T09:24:39.414Z,97.12
2017-02-17T09:25:39.397Z,97.12
2017-02-17T09:26:39.387Z,98.07
2017-02-17T09:27:39.363Z,97.97
2017-02-17T09:28:39.345Z,97.97
2017-02-17T09:29:39.329Z,97.6
2017-02-17T09:30:39.311Z,97.88
2017-02-17T09:31:39.297Z,97.6
2017-02-17T09:32:39.283Z,97.78
2017-02-17T09:33:39.309Z,97.41
2017-02-17T09:34:39.243Z,97.88
2017-02-17T09:35:38.832Z,98.55
2017-02-17T09:36:39.207Z,98.36
2017-02-17T09:37:39.191Z,98.64
2017-02-17T09:38:39.176Z,97.97
2017-02-17T09:39:39.162Z,98.64
2017-02-17T09:40:39.140Z,98.64
2017-02-17T09:41:39.133Z,98.97
2017-02-17T09:42:39.131Z,99.3
2017-02-17T09:43:39.088Z,98.55
2017-02-17T09:44:39.113Z,98.36
2017-02-17T09:45:39.056Z,98.26
2017-02-17T09:46:39.042Z,98.64
2017-02-17T09:47:39.017Z,98.55
2017-02-17T09:48:39.002Z,97.6
2017-02-17T09:49:38.986Z,98.07
2017-02-17T09:50:38.965Z,98.07
2017-02-17T09:51:38.945Z,97.97
2017-02-17T09:52:38.937Z,98.45
2017-02-17T09:53:38.921Z,98.45
2017-02-17T09:54:38.922Z,98.55
2017-02-17T09:55:38.877Z,97.97
2017-02-17T09:56:38.862Z,98.17
2017-02-17T09:57:38.841Z,98.74
2017-02-17T09:58:38.827Z,98.45
2017-02-17T09:59:38.413Z,98.45
2017-02-17T10:00:38.806Z,98.07
2017-02-17T10:01:38.796Z,98.55
2017-02-17T10:02:38.759Z,98.17
2017-02-17T10:03:38.741Z,98.45
2017-02-17T10:04:38.737Z,98.36
2017-02-17T10:05:38.715Z,98.36
2017-02-17T10:06:38.691Z,98.55
2017-02-17T10:07:38.669Z,98.17
2017-02-17T10:08:38.652Z,98.26
2017-02-17T10:09:38.642Z,97.78
2017-02-17T10:10:38.629Z,97.88
2017-02-17T10:11:38.619Z,97.69
2017-02-17T10:12:38.604Z,97.69
2017-02-17T10:13:38.568Z,97.69
2017-02-17T10:14:38.194Z,97.6
2017-02-17T10:15:38.540Z,97.6
2017-02-17T10:16:38.513Z,97.6
2017-02-17T10:17:38.494Z,97.6
2017-02-17T10:18:38.482Z,97.78
2017-02-17T10:19:38.463Z,97.12
2017-02-17T10:20:38.447Z,97.22
2017-02-17T10:21:38.428Z,97.6
2017-02-17T10:22:38.411Z,97.22
2017-02-17T10:23:38.399Z,97.12
2017-02-17T10:24:38.374Z,97.03
2017-02-17T10:25:38.364Z,97.12
2017-02-17T10:26:38.354Z,97.31
2017-02-17T10:27:38.338Z,97.6
2017-02-17T10:28:38.316Z,97.41
2017-02-17T10:29:38.290Z,97.03
2017-02-17T10:30:38.272Z,97.5
2017-02-17T10:31:38.480Z,96.93
2017-02-17T10:32:38.246Z,97.12
2017-02-17T10:33:38.227Z,97.97
2017-02-17T10:34:38.213Z,98.17
2017-02-17T10:35:38.195Z,98.45
2017-02-17T10:36:38.197Z,98.74
2017-02-17T10:37:38.154Z,99.3
2017-02-17T10:38:38.154Z,99.4
2017-02-17T10:39:38.129Z,99.5
2017-02-17T10:40:38.141Z,99.88
2017-02-17T10:41:38.083Z,99.99
2017-02-17T10:42:38.092Z,99.99
2017-02-17T10:43:38.050Z,99.99
2017-02-17T10:44:38.037Z,99.99
2017-02-17T10:45:38.037Z,99.99
2017-02-17T10:46:38.052Z,99.99
2017-02-17T10:47:38.005Z,99.99
2017-02-17T10:48:37.969Z,99.99
2017-02-17T10:49:38.013Z,99.99
2017-02-17T10:50:37.940Z,99.99
2017-02-17T10:51:37.916Z,99.99
2017-02-17T10:52:37.904Z,99.99
2017-02-17T10:53:37.889Z,99.99
2017-02-17T10:54:37.871Z,99.99
2017-02-17T10:55:37.869Z,99.99
2017-02-17T10:56:37.831Z,99.99
2017-02-17T10:57:37.824Z,99.99
2017-02-17T10:58:37.819Z,99.99
2017-02-17T10:59:37.785Z,99.99
2017-02-17T11:00:37.779Z,99.99
2017-02-17T11:01:37.777Z,99.99
2017-02-17T11:02:37.736Z,99.99
2017-02-17T11:03:37.728Z,99.99
2017-02-17T11:04:37.703Z,99.99
2017-02-17T11:05:37.682Z,99.99
2017-02-17T11:06:37.671Z,99.99
2017-02-17T11:07:37.653Z,99.99
2017-02-17T11:08:37.635Z,99.99
2017-02-17T11:09:37.615Z,99.99
2017-02-17T11:10:37.599Z,99.99
2017-02-17T11:11:37.589Z,99.99
2017-02-17T11:12:37.170Z,99.99
2017-02-17T11:13:37.550Z,99.99
2017-02-17T11:14:37.540Z,99.99
2017-02-17T11:15:37.130Z,99.99
2017-02-17T11:16:37.503Z,99.99
2017-02-17T11:17:37.507Z,99.99
2017-02-17T11:18:37.477Z,99.99
2017-02-17T11:19:37.459Z,99.99
2017-02-17T11:20:37.048Z,99.99
2017-02-17T11:21:37.418Z,99.99
2017-02-17T11:22:37.401Z,99.99
2017-02-17T11:23:37.432Z,99.99
2017-02-17T11:24:37.366Z,99.99
2017-02-17T11:25:36.952Z,99.99
2017-02-17T11:26:37.340Z,99.99
2017-02-17T11:27:37.315Z,99.99
2017-02-17T11:28:37.302Z,99.99
2017-02-17T11:29:37.282Z,99.99
2017-02-17T11:30:37.267Z,99.99
2017-02-17T11:31:37.244Z,99.99
2017-02-17T11:32:37.230Z,99.99
2017-02-17T11:33:37.216Z,99.99
2017-02-17T11:34:37.208Z,99.99
2017-02-17T11:35:37.180Z,99.99
2017-02-17T11:36:37.170Z,99.99
2017-02-17T11:37:37.151Z,99.99
2017-02-17T11:38:37.129Z,99.99
2017-02-17T11:39:37.111Z,99.99
2017-02-17T11:40:37.101Z,99.99
2017-02-17T11:41:37.079Z,99.99
2017-02-17T11:42:37.061Z,99.99
2017-02-17T11:43:37.058Z,99.99
2017-02-17T11:44:37.048Z,99.99
2017-02-17T11:45:37.033Z,99.99
2017-02-17T11:46:37.000Z,99.99
2017-02-17T11:47:36.983Z,99.99
2017-02-17T11:48:36.964Z,99.99
2017-02-17T11:49:36.559Z,99.99
2017-02-17T11:50:36.930Z,99.99
2017-02-17T11:51:36.913Z,99.99
2017-02-17T11:52:36.898Z,99.99
2017-02-17T11:53:36.881Z,99.99
2017-02-17T11:54:36.868Z,99.99
2017-02-17T11:55:36.849Z,99.99
2017-02-17T11:56:36.834Z,99.99
2017-02-17T11:57:36.822Z,99.99
2017-02-17T11:58:36.414Z,99.99
2017-02-17T11:59:36.778Z,99.99
2017-02-17T12:00:36.775Z,99.99
2017-02-17T12:01:36.752Z,99.99
2017-02-17T12:02:36.741Z,99.99
2017-02-17T12:03:36.714Z,99.99
2017-02-17T12:04:36.701Z,99.99
2017-02-17T12:05:36.689Z,99.99
2017-02-17T12:06:36.665Z,99.99
2017-02-17T12:07:36.651Z,99.99
2017-02-17T12:08:36.631Z,99.99
2017-02-17T12:09:36.620Z,99.99
2017-02-17T12:10:36.600Z,99.99
2017-02-17T12:11:36.584Z,99.99
2017-02-17T12:12:36.574Z,99.99
2017-02-17T12:13:36.553Z,99.99
2017-02-17T12:14:36.537Z,99.99
2017-02-17T12:15:36.520Z,99.99
2017-02-17T12:16:36.502Z,99.99
2017-02-17T12:17:36.493Z,99.99
2017-02-17T12:18:36.473Z,99.99
2017-02-17T12:19:36.454Z,99.99
2017-02-17T12:20:36.447Z,99.99
2017-02-17T12:21:36.425Z,99.99
2017-02-17T12:22:36.405Z,99.99
2017-02-17T12:23:36.390Z,99.99
2017-02-17T12:24:36.390Z,99.99
2017-02-17T12:25:35.962Z,99.99
2017-02-17T12:26:36.343Z,99.99
2017-02-17T12:27:36.333Z,99.99
2017-02-17T12:28:36.311Z,99.99
2017-02-17T12:29:36.309Z,99.99
2017-02-17T12:30:36.278Z,99.99
2017-02-17T12:31:36.471Z,99.99
2017-02-17T12:32:36.254Z,99.99
2017-02-17T12:33:36.233Z,99.99
2017-02-17T12:34:36.222Z,99.99
2017-02-17T12:35:36.216Z,99.99
2017-02-17T12:36:35.803Z,99.99
2017-02-17T12:37:36.176Z,99.99
2017-02-17T12:38:36.169Z,99.99
2017-02-17T12:39:36.144Z,99.99
2017-02-17T12:40:36.130Z,99.99
2017-02-17T12:41:36.113Z,99.99
2017-02-17T12:42:36.099Z,99.99
2017-02-17T12:43:35.683Z,99.99
2017-02-17T12:44:36.065Z,99.99
2017-02-17T12:45:36.049Z,99.99
2017-02-17T12:46:36.030Z,99.99
2017-02-17T12:47:36.016Z,99.99
2017-02-17T12:48:35.619Z,99.99
2017-02-17T12:49:35.999Z,99.99
2017-02-17T12:50:35.985Z,99.99
2017-02-17T12:51:35.955Z,99.99
2017-02-17T12:52:35.938Z,99.99
2017-02-17T12:53:35.922Z,99.99
2017-02-17T12:54:35.910Z,99.99
2017-02-17T12:55:35.901Z,99.99
2017-02-17T12:56:35.892Z,99.99
2017-02-17T12:57:35.863Z,99.99
2017-02-17T12:58:35.866Z,99.99
2017-02-17T12:59:35.430Z,99.99
2017-02-17T13:00:35.812Z,99.99
2017-02-17T13:01:35.807Z,99.99
2017-02-17T13:02:35.787Z,99.99
2017-02-17T13:03:35.766Z,99.99
2017-02-17T13:04:35.746Z,99.99